createdAt,value
2023-03-26T00:01:15.524Z,49.06
2023-03-26T00:03:47.151Z,49.98
2023-03-26T00:06:16.095Z,49.49
2023-03-26T00:08:45.176Z,49.91
2023-03-26T00:11:14.923Z,49.42
2023-03-26T00:13:43.729Z,50.14
2023-03-26T00:16:19.719Z,49.99
2023-03-26T00:18:48.895Z,50.29
2023-03-26T00:21:18.702Z,49.42
2023-03-26T00:23:46.098Z,49.61
2023-03-26T00:26:12.875Z,48.59
2023-03-26T00:28:41.496Z,49.33
2023-03-26T00:31:13.963Z,49.80
2023-03-26T00:33:41.980Z,49.60
2023-03-26T00:36:15.153Z,50.33
2023-03-26T00:38:43.301Z,50.48
2023-03-26T00:41:22.711Z,49.70
2023-03-26T00:43:51.903Z,50.33
2023-03-26T00:46:19.010Z,50.79
2023-03-26T00:48:46.560Z,52.09
2023-03-26T00:51:15.832Z,51.35
2023-03-26T00:53:44.981Z,51.63
2023-03-26T00:56:13.043Z,52.11
2023-03-26T00:58:40.625Z,52.63
2023-03-26T01:01:13.762Z,52.06
2023-03-26T01:03:52.987Z,52.09
2023-03-26T01:06:27.970Z,51.69
2023-03-26T01:09:00.313Z,50.94
2023-03-26T01:11:32.003Z,51.71
2023-03-26T01:14:06.320Z,52.19
2023-03-26T01:16:41.617Z,52.12
2023-03-26T01:19:16.435Z,51.64
2023-03-26T01:21:43.258Z,52.29
2023-03-26T01:24:10.519Z,52.43
2023-03-26T01:26:52.826Z,53.12
2023-03-26T01:29:29.781Z,53.14
2023-03-26T01:32:15.108Z,53.01
2023-03-26T01:35:19.457Z,53.01
2023-03-26T01:37:52.644Z,52.58
2023-03-26T01:40:57.877Z,52.42
2023-03-26T01:43:39.593Z,53.55
2023-03-26T01:46:09.407Z,52.51
2023-03-26T01:48:39.458Z,52.54
2023-03-26T01:51:07.312Z,53.61
2023-03-26T01:53:37.532Z,52.88
2023-03-26T01:56:22.548Z,53.18
2023-03-26T01:59:08.306Z,53.41
2023-03-26T02:02:04.894Z,52.86
2023-03-26T02:04:53.081Z,53.30
2023-03-26T02:07:44.778Z,52.50
2023-03-26T02:10:21.048Z,53.06
2023-03-26T02:12:47.828Z,53.48
2023-03-26T02:15:14.479Z,54.28
2023-03-26T02:17:41.299Z,53.69
2023-03-26T02:20:10.583Z,53.70
2023-03-26T02:22:41.727Z,54.17
2023-03-26T02:25:15.502Z,53.59
2023-03-26T02:27:43.235Z,53.74
2023-03-26T02:30:16.186Z,54.34
2023-03-26T02:32:45.558Z,54.26
2023-03-26T02:35:13.401Z,54.17
2023-03-26T02:37:42.134Z,53.86
2023-03-26T02:40:14.990Z,54.69
2023-03-26T02:42:44.475Z,52.55
2023-03-26T02:45:11.382Z,53.36
2023-03-26T02:48:00.880Z,54.58
2023-03-26T02:50:54.136Z,53.39
2023-03-26T02:53:37.640Z,54.45
2023-03-26T02:56:25.407Z,52.86
2023-03-26T02:59:12.262Z,52.40
2023-03-26T03:01:43.073Z,53.74
2023-03-26T03:04:12.990Z,54.14
2023-03-26T03:06:40.580Z,54.97
2023-03-26T03:09:11.479Z,54.37
2023-03-26T03:11:40.738Z,54.18
2023-03-26T03:14:08.314Z,54.33
2023-03-26T03:16:35.482Z,54.31
2023-03-26T03:19:06.508Z,53.02
2023-03-26T03:21:37.918Z,54.47
2023-03-26T03:24:05.565Z,54.23
2023-03-26T03:26:41.252Z,54.63
2023-03-26T03:29:19.468Z,54.99
2023-03-26T03:31:46.447Z,55.40
2023-03-26T03:34:27.614Z,56.96
2023-03-26T03:36:54.280Z,56.08
2023-03-26T03:39:31.393Z,56.26
2023-03-26T03:41:58.157Z,56.92
2023-03-26T03:44:24.805Z,56.96
2023-03-26T03:46:54.092Z,57.63
2023-03-26T03:49:22.430Z,57.25
2023-03-26T03:51:49.186Z,57.50
2023-03-26T03:54:25.148Z,57.41
2023-03-26T03:57:24.211Z,57.84
2023-03-26T04:00:00.683Z,57.98
2023-03-26T04:02:43.124Z,56.82
2023-03-26T04:05:11.977Z,56.70
2023-03-26T04:07:45.236Z,56.60
2023-03-26T04:10:43.760Z,57.55
2023-03-26T04:13:17.154Z,58.18
2023-03-26T04:16:10.462Z,59.25
2023-03-26T04:18:38.295Z,57.84
2023-03-26T04:21:12.795Z,58.05
2023-03-26T04:23:40.012Z,58.71
2023-03-26T04:26:19.822Z,57.50
2023-03-26T04:29:11.917Z,57.64
2023-03-26T04:31:38.860Z,58.10
2023-03-26T04:34:13.584Z,57.49
2023-03-26T04:36:54.881Z,57.92
2023-03-26T04:39:29.436Z,57.58
2023-03-26T04:42:15.363Z,57.66
2023-03-26T04:44:59.693Z,57.85
2023-03-26T04:47:29.030Z,57.41
2023-03-26T04:49:55.887Z,56.87
2023-03-26T04:52:22.886Z,57.10
2023-03-26T04:55:19.604Z,57.29
2023-03-26T04:57:55.627Z,57.90
2023-03-26T05:00:43.229Z,58.37
2023-03-26T05:03:11.671Z,57.35
2023-03-26T05:05:40.044Z,57.64
2023-03-26T05:08:07.783Z,57.77
2023-03-26T05:10:34.456Z,58.50
2023-03-26T05:13:09.882Z,57.86
2023-03-26T05:15:39.624Z,57.51
2023-03-26T05:18:13.441Z,57.69
2023-03-26T05:20:47.561Z,58.02
2023-03-26T05:23:14.478Z,57.46
2023-03-26T05:25:44.244Z,57.68
2023-03-26T05:28:15.584Z,57.44
2023-03-26T05:30:55.007Z,57.06
2023-03-26T05:33:24.546Z,57.54
2023-03-26T05:36:09.325Z,57.58
2023-03-26T05:38:37.143Z,57.43
2023-03-26T05:41:08.360Z,57.63
2023-03-26T05:43:37.479Z,58.40
2023-03-26T05:46:12.132Z,58.68
2023-03-26T05:48:39.274Z,58.25
2023-03-26T05:51:06.830Z,58.06
2023-03-26T05:53:34.278Z,58.21
2023-03-26T05:56:19.332Z,58.98
2023-03-26T05:59:04.922Z,58.98
2023-03-26T06:01:34.717Z,59.59
2023-03-26T06:04:21.394Z,59.83
2023-03-26T06:07:16.866Z,58.84
2023-03-26T06:09:49.661Z,59.09
2023-03-26T06:12:16.834Z,60.22
2023-03-26T06:14:43.968Z,60.43
2023-03-26T06:17:22.464Z,60.22
2023-03-26T06:20:16.107Z,60.33
2023-03-26T06:22:46.492Z,61.13
2023-03-26T06:25:19.701Z,60.91
2023-03-26T06:27:54.682Z,61.10
2023-03-26T06:30:44.590Z,59.61
2023-03-26T06:33:31.226Z,59.03
2023-03-26T06:36:00.400Z,59.34
2023-03-26T06:38:27.357Z,58.70
2023-03-26T06:40:54.507Z,57.32
2023-03-26T06:43:27.240Z,56.57
2023-03-26T06:45:53.892Z,56.76
2023-03-26T06:48:46.679Z,57.16
2023-03-26T06:51:13.502Z,56.25
2023-03-26T06:54:00.490Z,56.99
2023-03-26T06:56:43.424Z,57.42
2023-03-26T06:59:28.631Z,58.18
2023-03-26T07:02:14.122Z,57.77
2023-03-26T07:04:59.557Z,57.50
2023-03-26T07:07:46.676Z,56.95
2023-03-26T07:10:19.975Z,57.70
2023-03-26T07:13:04.281Z,59.22
2023-03-26T07:15:51.461Z,60.15
2023-03-26T07:18:43.781Z,60.68
2023-03-26T07:21:17.227Z,60.32
2023-03-26T07:23:44.293Z,59.66
2023-03-26T07:27:18.894Z,60.20
2023-03-26T07:29:52.279Z,59.89
2023-03-26T07:33:00.259Z,59.45
2023-03-26T07:35:52.007Z,58.90
2023-03-26T07:38:53.888Z,58.30
2023-03-26T07:42:09.799Z,57.15
2023-03-26T07:45:33.934Z,55.70
2023-03-26T07:48:29.649Z,56.06
2023-03-26T07:51:00.237Z,55.50
2023-03-26T07:53:45.586Z,55.67
2023-03-26T07:56:36.397Z,57.29
2023-03-26T07:59:39.038Z,57.70
2023-03-26T08:02:30.561Z,56.67
2023-03-26T08:05:21.555Z,56.02
2023-03-26T08:08:20.749Z,55.04
2023-03-26T08:11:28.244Z,53.77
2023-03-26T08:14:44.283Z,54.26
2023-03-26T08:17:21.034Z,52.10
2023-03-26T08:19:51.523Z,53.56
2023-03-26T08:22:27.378Z,51.84
2023-03-26T08:25:11.957Z,52.77
2023-03-26T08:27:43.365Z,50.38
2023-03-26T08:30:20.446Z,50.42
2023-03-26T08:32:56.558Z,50.84
2023-03-26T08:35:25.387Z,50.24
2023-03-26T08:37:52.198Z,50.15
2023-03-26T08:40:39.128Z,48.29
2023-03-26T08:43:19.684Z,46.92
2023-03-26T08:46:20.377Z,46.42
2023-03-26T08:49:09.789Z,50.20
2023-03-26T08:51:39.332Z,49.61
2023-03-26T08:54:08.757Z,50.83
2023-03-26T08:56:47.643Z,51.01
2023-03-26T09:00:02.858Z,51.20
2023-03-26T09:03:07.343Z,52.98
2023-03-26T09:05:55.675Z,48.58
2023-03-26T09:08:53.899Z,49.38
2023-03-26T09:11:30.275Z,48.93
2023-03-26T09:14:24.698Z,50.20
2023-03-26T09:17:13.297Z,51.77
2023-03-26T09:20:24.675Z,51.96
2023-03-26T09:23:09.883Z,51.31
2023-03-26T09:26:11.732Z,51.75
2023-03-26T09:29:01.356Z,52.63
2023-03-26T09:31:58.002Z,52.97
2023-03-26T09:34:54.967Z,53.13
2023-03-26T09:37:33.777Z,53.48
2023-03-26T09:40:05.090Z,54.45
2023-03-26T09:42:34.658Z,55.02
2023-03-26T09:45:16.121Z,57.70
2023-03-26T09:47:48.879Z,57.84
2023-03-26T09:50:42.554Z,55.41
2023-03-26T09:53:21.136Z,55.64
2023-03-26T09:56:00.268Z,55.45
2023-03-26T09:58:41.402Z,58.03
2023-03-26T10:01:26.352Z,57.22
2023-03-26T10:04:12.043Z,58.19
2023-03-26T10:07:12.834Z,57.98
2023-03-26T10:09:56.062Z,58.04
2023-03-26T10:12:51.030Z,57.66
2023-03-26T10:15:17.956Z,56.22
2023-03-26T10:18:29.197Z,55.41
2023-03-26T10:21:24.904Z,55.00
2023-03-26T10:24:07.670Z,55.14
2023-03-26T10:27:10.772Z,55.98
2023-03-26T10:29:57.747Z,57.86
2023-03-26T10:32:33.673Z,57.87
2023-03-26T10:35:06.240Z,56.66
2023-03-26T10:38:00.911Z,56.72
2023-03-26T10:40:43.802Z,55.39
2023-03-26T10:43:49.793Z,54.83
2023-03-26T10:46:38.212Z,55.44
2023-03-26T10:49:41.031Z,57.16
2023-03-26T10:52:13.077Z,58.08
2023-03-26T10:54:48.602Z,57.77
2023-03-26T10:57:33.971Z,56.33
2023-03-26T11:00:20.661Z,58.70
2023-03-26T11:03:08.200Z,56.94
2023-03-26T11:05:38.103Z,57.47
2023-03-26T11:08:21.196Z,54.79
2023-03-26T11:11:11.114Z,55.77
2023-03-26T11:13:45.563Z,57.09
2023-03-26T11:16:33.889Z,58.10
2023-03-26T11:19:13.470Z,57.84
2023-03-26T11:21:56.732Z,59.58
2023-03-26T11:24:55.897Z,61.23
2023-03-26T11:27:26.570Z,61.28
2023-03-26T11:30:02.520Z,61.91
2023-03-26T11:32:51.597Z,61.46
2023-03-26T11:35:40.923Z,62.07
2023-03-26T11:38:32.874Z,62.60
2023-03-26T11:41:03.654Z,64.54
2023-03-26T11:43:52.990Z,64.37
2023-03-26T11:46:22.954Z,65.42
2023-03-26T11:48:58.224Z,68.29
2023-03-26T11:51:31.913Z,71.18
2023-03-26T11:54:00.063Z,70.94
2023-03-26T11:56:32.110Z,71.14
2023-03-26T11:59:05.562Z,71.59
2023-03-26T12:01:50.680Z,71.58
2023-03-26T12:04:35.317Z,78.91
2023-03-26T12:07:18.145Z,79.55
2023-03-26T12:09:57.928Z,79.25
2023-03-26T12:12:47.543Z,82.47
2023-03-26T12:15:16.597Z,81.81
2023-03-26T12:17:43.445Z,81.59
2023-03-26T12:20:25.258Z,81.65
2023-03-26T12:22:53.844Z,82.91
2023-03-26T12:25:25.916Z,81.86
2023-03-26T12:28:05.959Z,85.40
2023-03-26T12:30:37.221Z,84.86
2023-03-26T12:33:29.387Z,86.34
2023-03-26T12:36:00.600Z,85.44
2023-03-26T12:38:34.653Z,85.68
2023-03-26T12:42:25.837Z,84.11
2023-03-26T12:44:53.354Z,83.03
2023-03-26T12:48:00.105Z,83.39
2023-03-26T12:50:16.609Z,85.46
2023-03-26T12:52:59.176Z,86.43
2023-03-26T12:55:31.808Z,86.84
2023-03-26T12:58:20.150Z,85.60
2023-03-26T13:01:11.199Z,85.96
2023-03-26T13:04:13.529Z,86.14
2023-03-26T13:07:00.710Z,86.12
2023-03-26T13:09:32.933Z,87.41
2023-03-26T13:12:18.253Z,87.57
2023-03-26T13:14:50.700Z,87.70
2023-03-26T13:17:26.936Z,89.07
2023-03-26T13:20:12.587Z,88.09
2023-03-26T13:22:58.474Z,86.99
2023-03-26T13:25:47.850Z,87.81
2023-03-26T13:28:17.333Z,85.41
2023-03-26T13:30:53.554Z,84.69
2023-03-26T13:33:41.020Z,83.48
2023-03-26T13:36:24.313Z,83.12
2023-03-26T13:39:10.755Z,83.07
2023-03-26T13:42:07.719Z,82.74
2023-03-26T13:45:04.979Z,81.12
2023-03-26T13:47:41.242Z,82.85
2023-03-26T13:50:15.757Z,84.10
2023-03-26T13:52:53.061Z,85.24
2023-03-26T13:55:41.061Z,85.42
2023-03-26T13:58:11.072Z,84.65
2023-03-26T14:00:58.235Z,81.76
2023-03-26T14:03:37.419Z,81.01
2023-03-26T14:06:10.782Z,78.85
2023-03-26T14:08:44.811Z,78.27
2023-03-26T14:11:18.243Z,77.67
2023-03-26T14:14:10.258Z,78.04
2023-03-26T14:16:45.793Z,78.06
2023-03-26T14:19:26.766Z,78.04
2023-03-26T14:21:56.371Z,77.81
2023-03-26T14:25:01.780Z,77.42
2023-03-26T14:27:46.358Z,75.09
2023-03-26T14:30:25.563Z,74.89
2023-03-26T14:33:04.404Z,73.47
2023-03-26T14:35:42.967Z,73.69
2023-03-26T14:38:34.926Z,73.67
2023-03-26T14:41:38.953Z,72.48
2023-03-26T14:44:48.202Z,71.77
2023-03-26T14:47:21.578Z,71.35
2023-03-26T14:50:04.152Z,72.03
2023-03-26T14:52:51.568Z,70.93
2023-03-26T14:55:30.054Z,71.06
2023-03-26T14:58:27.882Z,72.47
2023-03-26T15:01:06.780Z,71.69
2023-03-26T15:03:55.140Z,70.47
2023-03-26T15:06:42.163Z,70.34
2023-03-26T15:09:30.133Z,70.61
2023-03-26T15:12:30.617Z,68.87
2023-03-26T15:15:26.394Z,69.50
2023-03-26T15:18:14.702Z,69.22
2023-03-26T15:21:04.335Z,69.07
2023-03-26T15:24:09.783Z,69.26
2023-03-26T15:26:57.108Z,69.94
2023-03-26T15:29:38.513Z,69.00
2023-03-26T15:32:30.198Z,68.28
2023-03-26T15:35:30.648Z,68.01
2023-03-26T15:38:34.660Z,68.03
2023-03-26T15:41:46.993Z,67.90
2023-03-26T15:44:40.881Z,67.94
2023-03-26T15:47:28.322Z,68.33
2023-03-26T15:50:36.549Z,66.69
2023-03-26T15:53:33.660Z,64.28
2023-03-26T15:56:07.428Z,66.61
2023-03-26T15:58:51.970Z,65.97
2023-03-26T16:01:34.013Z,64.16
2023-03-26T16:04:34.512Z,63.51
2023-03-26T16:07:21.907Z,62.26
2023-03-26T16:10:00.739Z,61.88
2023-03-26T16:12:34.483Z,63.30
2023-03-26T16:15:21.082Z,63.54
2023-03-26T16:18:11.741Z,62.67
2023-03-26T16:20:53.971Z,64.48
2023-03-26T16:23:53.819Z,65.28
2023-03-26T16:26:52.433Z,64.88
2023-03-26T16:29:22.368Z,64.35
2023-03-26T16:32:07.498Z,64.26
2023-03-26T16:34:48.235Z,63.38
2023-03-26T16:37:36.715Z,64.04
2023-03-26T16:40:35.956Z,64.74
2023-03-26T16:43:17.816Z,66.15
2023-03-26T16:45:44.515Z,66.30
2023-03-26T16:48:17.322Z,66.34
2023-03-26T16:50:52.193Z,66.90
2023-03-26T16:53:46.005Z,67.13
2023-03-26T16:56:23.973Z,67.13
2023-03-26T16:58:58.656Z,66.79
2023-03-26T17:01:46.527Z,67.96
2023-03-26T17:04:24.588Z,67.29
2023-03-26T17:07:03.496Z,66.96
2023-03-26T17:09:51.652Z,67.83
2023-03-26T17:12:33.675Z,69.27
2023-03-26T17:15:06.509Z,69.60
2023-03-26T17:18:02.322Z,69.74
2023-03-26T17:20:44.013Z,70.34
2023-03-26T17:23:51.754Z,70.34
2023-03-26T17:26:39.638Z,71.07
2023-03-26T17:29:44.919Z,70.16
2023-03-26T17:32:15.021Z,69.86
2023-03-26T17:34:54.215Z,69.72
2023-03-26T17:37:23.556Z,69.90
2023-03-26T17:39:50.397Z,70.26
2023-03-26T17:42:35.540Z,70.32
2023-03-26T17:45:15.509Z,69.71
2023-03-26T17:47:58.936Z,70.57
2023-03-26T17:50:48.963Z,71.75
2023-03-26T17:53:28.305Z,71.86
2023-03-26T17:55:58.360Z,71.52
2023-03-26T17:58:31.801Z,72.37
2023-03-26T18:01:22.444Z,72.20
2023-03-26T18:03:54.401Z,72.71
2023-03-26T18:06:51.627Z,72.02
2023-03-26T18:10:02.045Z,72.50
2023-03-26T18:12:34.486Z,72.12
2023-03-26T18:15:29.009Z,72.71
2023-03-26T18:18:19.729Z,73.20
2023-03-26T18:20:49.402Z,73.21
2023-03-26T18:23:37.382Z,73.82
2023-03-26T18:26:14.132Z,74.03
2023-03-26T18:28:44.069Z,73.73
2023-03-26T18:31:26.175Z,74.45
2023-03-26T18:34:03.136Z,75.54
2023-03-26T18:36:31.028Z,75.12
2023-03-26T18:39:03.253Z,74.69
2023-03-26T18:41:41.737Z,74.96
2023-03-26T18:44:15.132Z,75.18
2023-03-26T18:46:42.749Z,75.64
2023-03-26T18:49:13.383Z,74.36
2023-03-26T18:51:54.055Z,74.29
2023-03-26T18:54:23.610Z,75.28
2023-03-26T18:56:52.140Z,75.63
2023-03-26T18:59:35.214Z,75.58
2023-03-26T19:02:16.325Z,74.97
2023-03-26T19:04:46.268Z,74.58
2023-03-26T19:07:24.884Z,74.73
2023-03-26T19:09:56.355Z,74.23
2023-03-26T19:12:28.680Z,72.76
2023-03-26T19:15:09.528Z,73.25
2023-03-26T19:17:49.416Z,73.39
2023-03-26T19:20:24.167Z,73.09
2023-03-26T19:22:51.002Z,73.65
2023-03-26T19:25:43.140Z,73.49
2023-03-26T19:28:25.712Z,74.55
2023-03-26T19:30:56.337Z,75.52
2023-03-26T19:33:25.604Z,75.74
2023-03-26T19:36:02.085Z,76.33
2023-03-26T19:38:38.004Z,76.47
2023-03-26T19:41:05.802Z,76.46
2023-03-26T19:43:32.543Z,75.64
2023-03-26T19:46:01.267Z,75.66
2023-03-26T19:48:45.629Z,74.83
2023-03-26T19:51:20.230Z,76.05
2023-03-26T19:53:55.804Z,75.90
2023-03-26T19:56:23.081Z,75.88
2023-03-26T19:58:52.949Z,75.30
2023-03-26T20:01:26.993Z,74.70
2023-03-26T20:04:00.703Z,74.76
2023-03-26T20:06:42.324Z,76.57
2023-03-26T20:09:12.469Z,76.85
2023-03-26T20:11:39.910Z,76.89
2023-03-26T20:14:15.913Z,76.73
2023-03-26T20:16:45.225Z,76.71
2023-03-26T20:19:14.296Z,75.72
2023-03-26T20:21:41.647Z,75.60
2023-03-26T20:24:16.917Z,75.74
2023-03-26T20:26:45.157Z,76.09
2023-03-26T20:29:13.018Z,75.94
2023-03-26T20:31:41.635Z,75.40
2023-03-26T20:34:20.669Z,74.84
2023-03-26T20:36:48.086Z,73.72
2023-03-26T20:39:14.890Z,73.56
2023-03-26T20:41:45.578Z,72.60
2023-03-26T20:44:15.718Z,72.45
2023-03-26T20:46:43.929Z,72.16
2023-03-26T20:49:11.712Z,72.56
2023-03-26T20:51:41.894Z,71.96
2023-03-26T20:54:30.341Z,71.73
2023-03-26T20:56:58.102Z,71.81
2023-03-26T20:59:27.590Z,70.48
2023-03-26T21:01:59.413Z,70.79
2023-03-26T21:04:27.053Z,70.75
2023-03-26T21:07:00.208Z,70.39
2023-03-26T21:09:34.076Z,70.97
2023-03-26T21:12:09.698Z,70.70
2023-03-26T21:14:41.170Z,69.19
2023-03-26T21:17:20.651Z,68.56
2023-03-26T21:19:49.252Z,67.46
2023-03-26T21:23:13.170Z,66.70
2023-03-26T21:25:53.388Z,67.26
2023-03-26T21:28:48.772Z,68.94
2023-03-26T21:31:21.974Z,67.32
2023-03-26T21:33:49.989Z,66.78
2023-03-26T21:36:19.601Z,67.20
2023-03-26T21:38:47.158Z,66.05
2023-03-26T21:41:41.618Z,66.69
2023-03-26T21:44:08.720Z,66.89
2023-03-26T21:46:35.847Z,66.74
2023-03-26T21:49:02.832Z,66.77
2023-03-26T21:51:29.985Z,67.20
2023-03-26T21:53:56.968Z,67.03
2023-03-26T21:56:56.023Z,67.57
2023-03-26T21:59:36.400Z,68.58
2023-03-26T22:02:23.089Z,69.29
2023-03-26T22:04:57.162Z,70.79
2023-03-26T22:07:30.659Z,70.61
2023-03-26T22:09:57.610Z,70.74
2023-03-26T22:12:25.581Z,69.99
2023-03-26T22:14:53.459Z,69.88
2023-03-26T22:17:20.092Z,69.25
2023-03-26T22:19:46.860Z,67.41
2023-03-26T22:22:14.966Z,68.24
2023-03-26T22:24:41.681Z,67.29
2023-03-26T22:27:08.369Z,67.24
2023-03-26T22:29:35.233Z,68.08
2023-03-26T22:32:03.544Z,66.34
2023-03-26T22:34:31.658Z,66.43
2023-03-26T22:36:58.334Z,65.22
2023-03-26T22:39:25.239Z,64.24
2023-03-26T22:41:51.840Z,64.72
2023-03-26T22:44:20.535Z,65.74
2023-03-26T22:46:50.610Z,66.61
2023-03-26T22:49:17.858Z,66.75
2023-03-26T22:51:44.549Z,65.77
2023-03-26T22:54:11.527Z,66.73
2023-03-26T22:56:38.195Z,67.33
2023-03-26T22:59:05.125Z,66.99
2023-03-26T23:01:31.862Z,66.38
2023-03-26T23:03:58.767Z,65.90
2023-03-26T23:06:25.667Z,66.36
2023-03-26T23:08:52.435Z,66.17
2023-03-26T23:11:21.952Z,66.53
2023-03-26T23:13:49.317Z,66.48
2023-03-26T23:16:17.108Z,66.85
2023-03-26T23:18:44.192Z,66.79
2023-03-26T23:21:16.706Z,66.30
2023-03-26T23:23:43.461Z,65.61
2023-03-26T23:26:10.842Z,65.38
2023-03-26T23:28:38.318Z,65.98
2023-03-26T23:31:07.701Z,66.15
2023-03-26T23:33:37.119Z,66.47
2023-03-26T23:36:09.192Z,66.94
2023-03-26T23:38:43.442Z,67.94
2023-03-26T23:41:15.683Z,67.62
2023-03-26T23:43:54.241Z,69.14
2023-03-26T23:46:31.027Z,71.28
2023-03-26T23:49:03.467Z,75.07
2023-03-26T23:51:31.101Z,74.86
2023-03-26T23:53:58.462Z,74.93
2023-03-26T23:56:27.754Z,74.74
2023-03-26T23:58:55.229Z,73.15
